sensor_id;sensor_type;location;lat;lon;timestamp;temperature;humidity
13802;DHT22;6972;51.518;6.918;2023-05-20T00:01:04;20.60;99.90
13802;DHT22;6972;51.518;6.918;2023-05-20T00:03:29;20.60;99.90
13802;DHT22;6972;51.518;6.918;2023-05-20T00:05:55;20.60;99.90
13802;DHT22;6972;51.518;6.918;2023-05-20T00:08:20;20.50;99.90
13802;DHT22;6972;51.518;6.918;2023-05-20T00:10:46;20.60;99.90
13802;DHT22;6972;51.518;6.918;2023-05-20T00:13:12;20.60;99.90
13802;DHT22;6972;51.518;6.918;2023-05-20T00:15:37;20.50;99.90
13802;DHT22;6972;51.518;6.918;2023-05-20T00:18:03;20.50;99.90
13802;DHT22;6972;51.518;6.918;2023-05-20T00:20:29;20.60;99.90
13802;DHT22;6972;51.518;6.918;2023-05-20T00:22:55;20.50;99.90
13802;DHT22;6972;51.518;6.918;2023-05-20T00:25:21;20.50;99.90
13802;DHT22;6972;51.518;6.918;2023-05-20T00:27:47;20.50;99.90
13802;DHT22;6972;51.518;6.918;2023-05-20T00:30:12;20.50;99.90
13802;DHT22;6972;51.518;6.918;2023-05-20T00:32:38;20.50;99.90
13802;DHT22;6972;51.518;6.918;2023-05-20T00:35:04;20.50;99.90
13802;DHT22;6972;51.518;6.918;2023-05-20T00:37:30;20.50;99.90
13802;DHT22;6972;51.518;6.918;2023-05-20T00:39:56;20.50;99.90
13802;DHT22;6972;51.518;6.918;2023-05-20T00:42:26;20.50;99.90
13802;DHT22;6972;51.518;6.918;2023-05-20T00:44:53;20.50;99.90
13802;DHT22;6972;51.518;6.918;2023-05-20T00:47:21;20.50;99.90
13802;DHT22;6972;51.518;6.918;2023-05-20T00:49:49;20.50;99.90
13802;DHT22;6972;51.518;6.918;2023-05-20T00:52:16;20.50;99.90
13802;DHT22;6972;51.518;6.918;2023-05-20T00:54:42;20.50;99.90
13802;DHT22;6972;51.518;6.918;2023-05-20T00:57:08;20.50;99.90
13802;DHT22;6972;51.518;6.918;2023-05-20T00:59:36;20.50;99.90
13802;DHT22;6972;51.518;6.918;2023-05-20T01:02:02;20.50;99.90
13802;DHT22;6972;51.518;6.918;2023-05-20T01:04:29;20.50;99.90
13802;DHT22;6972;51.518;6.918;2023-05-20T01:06:55;20.50;99.90
13802;DHT22;6972;51.518;6.918;2023-05-20T01:09:22;20.50;99.90
13802;DHT22;6972;51.518;6.918;2023-05-20T01:11:58;20.50;99.90
13802;DHT22;6972;51.518;6.918;2023-05-20T01:14:29;20.50;99.90
13802;DHT22;6972;51.518;6.918;2023-05-20T01:16:58;20.50;99.90
13802;DHT22;6972;51.518;6.918;2023-05-20T01:19:30;20.40;99.90
13802;DHT22;6972;51.518;6.918;2023-05-20T01:22:02;20.50;99.90
13802;DHT22;6972;51.518;6.918;2023-05-20T01:24:29;20.40;99.90
13802;DHT22;6972;51.518;6.918;2023-05-20T01:26:55;20.40;99.90
13802;DHT22;6972;51.518;6.918;2023-05-20T01:29:23;20.40;99.90
13802;DHT22;6972;51.518;6.918;2023-05-20T01:31:50;20.40;99.90
13802;DHT22;6972;51.518;6.918;2023-05-20T01:34:16;20.40;99.90
13802;DHT22;6972;51.518;6.918;2023-05-20T01:36:44;20.40;99.90
13802;DHT22;6972;51.518;6.918;2023-05-20T01:39:11;20.40;99.90
13802;DHT22;6972;51.518;6.918;2023-05-20T01:41:37;20.40;99.90
13802;DHT22;6972;51.518;6.918;2023-05-20T01:44:03;20.40;99.90
13802;DHT22;6972;51.518;6.918;2023-05-20T01:46:32;20.40;99.90
13802;DHT22;6972;51.518;6.918;2023-05-20T01:48:59;20.40;99.90
13802;DHT22;6972;51.518;6.918;2023-05-20T01:51:24;20.40;99.90
13802;DHT22;6972;51.518;6.918;2023-05-20T01:53:50;20.40;99.90
13802;DHT22;6972;51.518;6.918;2023-05-20T01:56:16;20.40;99.90
13802;DHT22;6972;51.518;6.918;2023-05-20T01:58:41;20.40;99.90
13802;DHT22;6972;51.518;6.918;2023-05-20T02:01:07;20.40;99.90
13802;DHT22;6972;51.518;6.918;2023-05-20T02:03:33;20.40;99.90
13802;DHT22;6972;51.518;6.918;2023-05-20T02:05:58;20.30;99.90
13802;DHT22;6972;51.518;6.918;2023-05-20T02:08:24;20.40;99.90
13802;DHT22;6972;51.518;6.918;2023-05-20T02:10:50;20.40;99.90
13802;DHT22;6972;51.518;6.918;2023-05-20T02:13:15;20.40;99.90
13802;DHT22;6972;51.518;6.918;2023-05-20T02:15:41;20.40;99.90
13802;DHT22;6972;51.518;6.918;2023-05-20T02:18:07;20.40;99.90
13802;DHT22;6972;51.518;6.918;2023-05-20T02:20:36;20.40;99.90
13802;DHT22;6972;51.518;6.918;2023-05-20T02:23:02;20.30;99.90
13802;DHT22;6972;51.518;6.918;2023-05-20T02:25:33;20.40;99.90
13802;DHT22;6972;51.518;6.918;2023-05-20T02:27:58;20.30;99.90
13802;DHT22;6972;51.518;6.918;2023-05-20T02:30:25;20.40;99.90
13802;DHT22;6972;51.518;6.918;2023-05-20T02:32:52;20.30;99.90
13802;DHT22;6972;51.518;6.918;2023-05-20T02:35:17;20.30;99.90
13802;DHT22;6972;51.518;6.918;2023-05-20T02:37:44;20.30;99.90
13802;DHT22;6972;51.518;6.918;2023-05-20T02:40:10;20.30;99.90
13802;DHT22;6972;51.518;6.918;2023-05-20T02:42:36;20.30;99.90
13802;DHT22;6972;51.518;6.918;2023-05-20T02:45:01;20.30;99.90
13802;DHT22;6972;51.518;6.918;2023-05-20T02:47:27;20.30;99.90
13802;DHT22;6972;51.518;6.918;2023-05-20T02:49:53;20.30;99.90
13802;DHT22;6972;51.518;6.918;2023-05-20T02:52:19;20.30;99.90
13802;DHT22;6972;51.518;6.918;2023-05-20T02:54:45;20.30;99.90
13802;DHT22;6972;51.518;6.918;2023-05-20T02:57:11;20.30;99.90
13802;DHT22;6972;51.518;6.918;2023-05-20T02:59:37;20.30;99.90
13802;DHT22;6972;51.518;6.918;2023-05-20T03:02:02;20.30;99.90
13802;DHT22;6972;51.518;6.918;2023-05-20T03:04:28;20.30;99.90
13802;DHT22;6972;51.518;6.918;2023-05-20T03:06:53;20.30;99.90
13802;DHT22;6972;51.518;6.918;2023-05-20T03:09:22;20.30;99.90
13802;DHT22;6972;51.518;6.918;2023-05-20T03:11:48;20.30;99.90
13802;DHT22;6972;51.518;6.918;2023-05-20T03:14:14;20.30;99.90
13802;DHT22;6972;51.518;6.918;2023-05-20T03:16:40;20.30;99.90
13802;DHT22;6972;51.518;6.918;2023-05-20T03:19:06;20.30;99.90
13802;DHT22;6972;51.518;6.918;2023-05-20T03:21:31;20.30;99.90
13802;DHT22;6972;51.518;6.918;2023-05-20T03:23:58;20.30;99.90
13802;DHT22;6972;51.518;6.918;2023-05-20T03:26:24;20.30;99.90
13802;DHT22;6972;51.518;6.918;2023-05-20T03:28:50;20.30;99.90
13802;DHT22;6972;51.518;6.918;2023-05-20T03:31:16;20.30;99.90
13802;DHT22;6972;51.518;6.918;2023-05-20T03:33:41;20.20;99.90
13802;DHT22;6972;51.518;6.918;2023-05-20T03:36:07;20.30;99.90
13802;DHT22;6972;51.518;6.918;2023-05-20T03:38:33;20.30;99.90
13802;DHT22;6972;51.518;6.918;2023-05-20T03:40:58;20.30;99.90
13802;DHT22;6972;51.518;6.918;2023-05-20T03:43:24;20.10;99.90
13802;DHT22;6972;51.518;6.918;2023-05-20T03:45:51;20.30;99.90
13802;DHT22;6972;51.518;6.918;2023-05-20T03:48:16;20.20;99.90
13802;DHT22;6972;51.518;6.918;2023-05-20T03:50:42;20.30;99.90
13802;DHT22;6972;51.518;6.918;2023-05-20T03:53:08;20.20;99.90
13802;DHT22;6972;51.518;6.918;2023-05-20T03:55:33;21.30;99.90
13802;DHT22;6972;51.518;6.918;2023-05-20T03:57:59;20.20;99.90
13802;DHT22;6972;51.518;6.918;2023-05-20T04:00:25;20.20;99.90
13802;DHT22;6972;51.518;6.918;2023-05-20T04:02:52;20.40;99.90
13802;DHT22;6972;51.518;6.918;2023-05-20T04:05:17;20.20;99.90
13802;DHT22;6972;51.518;6.918;2023-05-20T04:07:44;20.20;99.90
13802;DHT22;6972;51.518;6.918;2023-05-20T04:10:10;20.20;99.90
13802;DHT22;6972;51.518;6.918;2023-05-20T04:12:35;20.20;99.90
13802;DHT22;6972;51.518;6.918;2023-05-20T04:15:02;20.20;99.90
13802;DHT22;6972;51.518;6.918;2023-05-20T04:17:29;20.20;99.90
13802;DHT22;6972;51.518;6.918;2023-05-20T04:19:56;20.20;99.90
13802;DHT22;6972;51.518;6.918;2023-05-20T04:22:27;20.20;99.90
13802;DHT22;6972;51.518;6.918;2023-05-20T04:24:53;21.50;99.90
13802;DHT22;6972;51.518;6.918;2023-05-20T04:27:19;20.20;99.90
13802;DHT22;6972;51.518;6.918;2023-05-20T04:29:46;20.20;99.90
13802;DHT22;6972;51.518;6.918;2023-05-20T04:32:12;20.20;99.90
13802;DHT22;6972;51.518;6.918;2023-05-20T04:34:38;20.20;99.90
13802;DHT22;6972;51.518;6.918;2023-05-20T04:37:04;20.20;99.90
13802;DHT22;6972;51.518;6.918;2023-05-20T04:39:32;20.00;99.90
13802;DHT22;6972;51.518;6.918;2023-05-20T04:41:57;20.20;99.90
13802;DHT22;6972;51.518;6.918;2023-05-20T04:44:24;20.20;99.90
13802;DHT22;6972;51.518;6.918;2023-05-20T04:46:51;20.20;99.90
13802;DHT22;6972;51.518;6.918;2023-05-20T04:49:16;20.20;99.90
13802;DHT22;6972;51.518;6.918;2023-05-20T04:51:42;20.20;99.90
13802;DHT22;6972;51.518;6.918;2023-05-20T04:54:08;20.20;99.90
13802;DHT22;6972;51.518;6.918;2023-05-20T04:56:33;20.20;99.90
13802;DHT22;6972;51.518;6.918;2023-05-20T04:59:00;20.20;99.90
13802;DHT22;6972;51.518;6.918;2023-05-20T05:01:26;20.20;99.90
13802;DHT22;6972;51.518;6.918;2023-05-20T05:03:52;20.20;99.90
13802;DHT22;6972;51.518;6.918;2023-05-20T05:06:18;20.10;99.90
13802;DHT22;6972;51.518;6.918;2023-05-20T05:08:43;20.20;99.90
13802;DHT22;6972;51.518;6.918;2023-05-20T05:11:09;20.20;99.90
13802;DHT22;6972;51.518;6.918;2023-05-20T05:13:35;20.20;99.90
13802;DHT22;6972;51.518;6.918;2023-05-20T05:16:01;20.20;99.90
13802;DHT22;6972;51.518;6.918;2023-05-20T05:18:27;20.20;99.90
13802;DHT22;6972;51.518;6.918;2023-05-20T05:21:03;20.20;99.90
13802;DHT22;6972;51.518;6.918;2023-05-20T05:23:31;20.20;99.90
13802;DHT22;6972;51.518;6.918;2023-05-20T05:25:57;20.20;99.90
13802;DHT22;6972;51.518;6.918;2023-05-20T05:28:23;20.20;99.90
13802;DHT22;6972;51.518;6.918;2023-05-20T05:30:49;20.20;99.90
13802;DHT22;6972;51.518;6.918;2023-05-20T05:33:15;20.20;99.90
13802;DHT22;6972;51.518;6.918;2023-05-20T05:35:41;20.20;99.90
13802;DHT22;6972;51.518;6.918;2023-05-20T05:38:07;20.20;99.90
13802;DHT22;6972;51.518;6.918;2023-05-20T05:40:35;20.20;99.90
13802;DHT22;6972;51.518;6.918;2023-05-20T05:43:00;20.20;99.90
13802;DHT22;6972;51.518;6.918;2023-05-20T05:45:26;20.20;99.90
13802;DHT22;6972;51.518;6.918;2023-05-20T05:47:52;20.20;99.90
13802;DHT22;6972;51.518;6.918;2023-05-20T05:50:18;20.20;99.90
13802;DHT22;6972;51.518;6.918;2023-05-20T05:52:43;20.20;99.90
13802;DHT22;6972;51.518;6.918;2023-05-20T05:55:10;20.20;99.90
13802;DHT22;6972;51.518;6.918;2023-05-20T05:57:35;20.20;99.90
13802;DHT22;6972;51.518;6.918;2023-05-20T06:00:01;20.20;99.90
13802;DHT22;6972;51.518;6.918;2023-05-20T06:02:27;20.20;99.90
13802;DHT22;6972;51.518;6.918;2023-05-20T06:04:53;20.20;99.90
13802;DHT22;6972;51.518;6.918;2023-05-20T06:07:18;20.20;99.90
13802;DHT22;6972;51.518;6.918;2023-05-20T06:09:44;20.20;99.90
13802;DHT22;6972;51.518;6.918;2023-05-20T06:12:10;20.20;99.90
13802;DHT22;6972;51.518;6.918;2023-05-20T06:14:35;20.20;99.90
13802;DHT22;6972;51.518;6.918;2023-05-20T06:17:02;20.20;99.90
13802;DHT22;6972;51.518;6.918;2023-05-20T06:19:28;20.20;99.90
13802;DHT22;6972;51.518;6.918;2023-05-20T06:21:54;20.20;99.90
13802;DHT22;6972;51.518;6.918;2023-05-20T06:24:20;20.20;99.90
13802;DHT22;6972;51.518;6.918;2023-05-20T06:26:46;20.20;99.90
13802;DHT22;6972;51.518;6.918;2023-05-20T06:29:14;20.20;99.90
13802;DHT22;6972;51.518;6.918;2023-05-20T06:31:39;20.30;99.90
13802;DHT22;6972;51.518;6.918;2023-05-20T06:34:05;20.30;99.90
13802;DHT22;6972;51.518;6.918;2023-05-20T06:36:31;20.20;99.90
13802;DHT22;6972;51.518;6.918;2023-05-20T06:38:56;20.20;99.90
13802;DHT22;6972;51.518;6.918;2023-05-20T06:41:22;20.20;99.90
13802;DHT22;6972;51.518;6.918;2023-05-20T06:43:47;20.30;99.90
13802;DHT22;6972;51.518;6.918;2023-05-20T06:46:13;20.30;99.90
13802;DHT22;6972;51.518;6.918;2023-05-20T06:48:38;20.30;99.90
13802;DHT22;6972;51.518;6.918;2023-05-20T06:51:07;20.30;99.90
13802;DHT22;6972;51.518;6.918;2023-05-20T06:53:36;20.30;99.90
13802;DHT22;6972;51.518;6.918;2023-05-20T06:56:02;20.30;99.90
13802;DHT22;6972;51.518;6.918;2023-05-20T06:58:28;20.30;99.90
13802;DHT22;6972;51.518;6.918;2023-05-20T07:00:53;20.30;99.90
13802;DHT22;6972;51.518;6.918;2023-05-20T07:03:19;20.30;99.90
13802;DHT22;6972;51.518;6.918;2023-05-20T07:05:44;20.30;99.90
13802;DHT22;6972;51.518;6.918;2023-05-20T07:08:10;20.30;99.90
13802;DHT22;6972;51.518;6.918;2023-05-20T07:10:36;20.30;99.90
13802;DHT22;6972;51.518;6.918;2023-05-20T07:13:02;20.30;99.90
13802;DHT22;6972;51.518;6.918;2023-05-20T07:15:27;20.30;99.90
13802;DHT22;6972;51.518;6.918;2023-05-20T07:17:53;20.30;99.90
13802;DHT22;6972;51.518;6.918;2023-05-20T07:20:19;20.30;99.90
13802;DHT22;6972;51.518;6.918;2023-05-20T07:22:44;20.30;99.90
13802;DHT22;6972;51.518;6.918;2023-05-20T07:25:10;20.30;99.90
13802;DHT22;6972;51.518;6.918;2023-05-20T07:27:36;20.30;99.90
13802;DHT22;6972;51.518;6.918;2023-05-20T07:30:02;20.30;99.90
13802;DHT22;6972;51.518;6.918;2023-05-20T07:32:27;20.30;99.90
13802;DHT22;6972;51.518;6.918;2023-05-20T07:34:53;20.30;99.90
13802;DHT22;6972;51.518;6.918;2023-05-20T07:37:19;20.30;99.90
13802;DHT22;6972;51.518;6.918;2023-05-20T07:39:44;20.40;99.90
13802;DHT22;6972;51.518;6.918;2023-05-20T07:42:10;20.40;99.90
13802;DHT22;6972;51.518;6.918;2023-05-20T07:44:35;20.40;99.90
13802;DHT22;6972;51.518;6.918;2023-05-20T07:47:01;20.40;99.90
13802;DHT22;6972;51.518;6.918;2023-05-20T07:49:27;20.40;99.90
13802;DHT22;6972;51.518;6.918;2023-05-20T07:51:53;20.40;99.90
13802;DHT22;6972;51.518;6.918;2023-05-20T07:54:18;20.40;99.90
13802;DHT22;6972;51.518;6.918;2023-05-20T07:56:44;20.50;99.90
13802;DHT22;6972;51.518;6.918;2023-05-20T07:59:10;20.40;99.90
13802;DHT22;6972;51.518;6.918;2023-05-20T08:01:35;20.50;99.90
13802;DHT22;6972;51.518;6.918;2023-05-20T08:04:01;20.40;99.90
13802;DHT22;6972;51.518;6.918;2023-05-20T08:06:27;20.50;99.90
13802;DHT22;6972;51.518;6.918;2023-05-20T08:08:53;20.50;99.90
13802;DHT22;6972;51.518;6.918;2023-05-20T08:11:19;20.50;99.90
13802;DHT22;6972;51.518;6.918;2023-05-20T08:13:46;20.50;99.90
13802;DHT22;6972;51.518;6.918;2023-05-20T08:16:12;20.50;99.90
13802;DHT22;6972;51.518;6.918;2023-05-20T08:18:38;20.50;99.90
13802;DHT22;6972;51.518;6.918;2023-05-20T08:21:07;20.50;99.90
13802;DHT22;6972;51.518;6.918;2023-05-20T08:23:33;20.50;99.90
13802;DHT22;6972;51.518;6.918;2023-05-20T08:25:59;20.50;99.90
13802;DHT22;6972;51.518;6.918;2023-05-20T08:28:27;20.50;99.90
13802;DHT22;6972;51.518;6.918;2023-05-20T08:30:53;20.50;99.90
13802;DHT22;6972;51.518;6.918;2023-05-20T08:33:19;20.60;99.90
13802;DHT22;6972;51.518;6.918;2023-05-20T08:35:46;20.60;99.90
13802;DHT22;6972;51.518;6.918;2023-05-20T08:38:12;20.60;99.90
13802;DHT22;6972;51.518;6.918;2023-05-20T08:40:37;20.50;99.90
13802;DHT22;6972;51.518;6.918;2023-05-20T08:43:03;20.60;99.90
13802;DHT22;6972;51.518;6.918;2023-05-20T08:45:36;20.50;99.90
13802;DHT22;6972;51.518;6.918;2023-05-20T08:48:02;20.60;99.90
13802;DHT22;6972;51.518;6.918;2023-05-20T08:50:30;20.50;99.90
13802;DHT22;6972;51.518;6.918;2023-05-20T08:52:56;20.60;99.90
13802;DHT22;6972;51.518;6.918;2023-05-20T08:55:42;20.60;99.90
13802;DHT22;6972;51.518;6.918;2023-05-20T08:58:11;20.50;99.90
13802;DHT22;6972;51.518;6.918;2023-05-20T09:00:36;20.40;99.90
13802;DHT22;6972;51.518;6.918;2023-05-20T09:03:03;20.30;99.90
13802;DHT22;6972;51.518;6.918;2023-05-20T09:05:29;20.20;99.90
13802;DHT22;6972;51.518;6.918;2023-05-20T09:08:09;20.10;99.90
13802;DHT22;6972;51.518;6.918;2023-05-20T09:10:37;19.90;99.90
13802;DHT22;6972;51.518;6.918;2023-05-20T09:13:03;19.80;99.90
13802;DHT22;6972;51.518;6.918;2023-05-20T09:15:30;19.80;99.90
13802;DHT22;6972;51.518;6.918;2023-05-20T09:17:59;19.70;99.90
13802;DHT22;6972;51.518;6.918;2023-05-20T09:20:26;19.70;99.90
13802;DHT22;6972;51.518;6.918;2023-05-20T09:22:53;19.70;99.90
13802;DHT22;6972;51.518;6.918;2023-05-20T09:25:23;19.70;99.90
13802;DHT22;6972;51.518;6.918;2023-05-20T09:27:49;19.60;99.90
13802;DHT22;6972;51.518;6.918;2023-05-20T09:30:18;19.60;99.90
13802;DHT22;6972;51.518;6.918;2023-05-20T09:32:44;19.60;99.90
13802;DHT22;6972;51.518;6.918;2023-05-20T09:35:13;19.60;99.90
13802;DHT22;6972;51.518;6.918;2023-05-20T09:37:41;19.60;99.90
13802;DHT22;6972;51.518;6.918;2023-05-20T09:40:07;19.50;99.90
13802;DHT22;6972;51.518;6.918;2023-05-20T09:42:41;19.60;99.90
13802;DHT22;6972;51.518;6.918;2023-05-20T09:45:08;19.50;99.90
13802;DHT22;6972;51.518;6.918;2023-05-20T09:47:37;19.50;99.90
13802;DHT22;6972;51.518;6.918;2023-05-20T09:50:05;19.50;99.90
13802;DHT22;6972;51.518;6.918;2023-05-20T09:52:36;19.50;99.90
13802;DHT22;6972;51.518;6.918;2023-05-20T09:55:03;19.50;99.90
13802;DHT22;6972;51.518;6.918;2023-05-20T09:57:36;19.50;99.90
13802;DHT22;6972;51.518;6.918;2023-05-20T10:00:05;19.50;99.90
13802;DHT22;6972;51.518;6.918;2023-05-20T10:02:32;19.50;99.90
13802;DHT22;6972;51.518;6.918;2023-05-20T10:05:06;19.40;99.90
13802;DHT22;6972;51.518;6.918;2023-05-20T10:10:33;19.40;99.90
13802;DHT22;6972;51.518;6.918;2023-05-20T10:16:08;19.40;99.90
13802;DHT22;6972;51.518;6.918;2023-05-20T10:18:57;19.40;99.90
13802;DHT22;6972;51.518;6.918;2023-05-20T10:21:28;19.40;99.90
13802;DHT22;6972;51.518;6.918;2023-05-20T10:24:08;19.40;99.90
13802;DHT22;6972;51.518;6.918;2023-05-20T10:26:38;19.40;99.90
13802;DHT22;6972;51.518;6.918;2023-05-20T10:29:16;19.40;99.90
13802;DHT22;6972;51.518;6.918;2023-05-20T10:31:50;19.40;99.90
13802;DHT22;6972;51.518;6.918;2023-05-20T10:34:17;19.40;99.90
13802;DHT22;6972;51.518;6.918;2023-05-20T10:36:57;19.40;99.90
13802;DHT22;6972;51.518;6.918;2023-05-20T10:39:27;19.40;99.90
13802;DHT22;6972;51.518;6.918;2023-05-20T10:42:05;19.40;99.90
13802;DHT22;6972;51.518;6.918;2023-05-20T10:44:44;19.50;99.90
13802;DHT22;6972;51.518;6.918;2023-05-20T10:47:11;19.60;99.90
13802;DHT22;6972;51.518;6.918;2023-05-20T10:49:46;19.70;99.90
13802;DHT22;6972;51.518;6.918;2023-05-20T10:52:16;19.70;99.90
13802;DHT22;6972;51.518;6.918;2023-05-20T10:54:46;19.80;99.90
13802;DHT22;6972;51.518;6.918;2023-05-20T10:57:12;19.90;99.90
13802;DHT22;6972;51.518;6.918;2023-05-20T10:59:38;19.90;99.90
13802;DHT22;6972;51.518;6.918;2023-05-20T11:02:05;20.00;99.90
13802;DHT22;6972;51.518;6.918;2023-05-20T11:04:31;20.00;99.90
13802;DHT22;6972;51.518;6.918;2023-05-20T11:06:57;20.10;99.90
13802;DHT22;6972;51.518;6.918;2023-05-20T11:09:23;20.10;99.90
13802;DHT22;6972;51.518;6.918;2023-05-20T11:11:53;20.20;99.90
13802;DHT22;6972;51.518;6.918;2023-05-20T11:14:20;20.20;99.90
13802;DHT22;6972;51.518;6.918;2023-05-20T11:16:50;20.20;99.90
13802;DHT22;6972;51.518;6.918;2023-05-20T11:19:16;20.30;99.90
13802;DHT22;6972;51.518;6.918;2023-05-20T11:21:44;20.30;99.90
13802;DHT22;6972;51.518;6.918;2023-05-20T11:24:10;20.30;99.90
13802;DHT22;6972;51.518;6.918;2023-05-20T11:26:36;20.40;99.90
13802;DHT22;6972;51.518;6.918;2023-05-20T11:29:02;20.40;99.90
13802;DHT22;6972;51.518;6.918;2023-05-20T11:31:28;20.40;99.90
13802;DHT22;6972;51.518;6.918;2023-05-20T11:33:53;20.50;99.90
13802;DHT22;6972;51.518;6.918;2023-05-20T11:36:19;20.40;99.90
13802;DHT22;6972;51.518;6.918;2023-05-20T11:38:46;20.50;99.90
13802;DHT22;6972;51.518;6.918;2023-05-20T11:41:12;20.50;99.90
13802;DHT22;6972;51.518;6.918;2023-05-20T11:43:38;20.50;99.90
13802;DHT22;6972;51.518;6.918;2023-05-20T11:46:04;20.50;99.90
13802;DHT22;6972;51.518;6.918;2023-05-20T11:48:29;20.50;99.90
13802;DHT22;6972;51.518;6.918;2023-05-20T11:50:56;20.60;99.90
13802;DHT22;6972;51.518;6.918;2023-05-20T11:53:22;20.60;99.90
13802;DHT22;6972;51.518;6.918;2023-05-20T11:55:57;20.60;99.90
13802;DHT22;6972;51.518;6.918;2023-05-20T11:58:30;20.70;99.90
13802;DHT22;6972;51.518;6.918;2023-05-20T12:00:56;20.60;99.90
13802;DHT22;6972;51.518;6.918;2023-05-20T12:03:22;20.70;99.90
13802;DHT22;6972;51.518;6.918;2023-05-20T12:05:48;20.70;99.90
13802;DHT22;6972;51.518;6.918;2023-05-20T12:08:15;20.70;99.90
13802;DHT22;6972;51.518;6.918;2023-05-20T12:10:40;20.70;99.90
13802;DHT22;6972;51.518;6.918;2023-05-20T12:13:06;20.80;99.90
13802;DHT22;6972;51.518;6.918;2023-05-20T12:15:37;20.80;99.90
13802;DHT22;6972;51.518;6.918;2023-05-20T12:18:03;20.80;99.90
13802;DHT22;6972;51.518;6.918;2023-05-20T12:20:29;20.80;99.90
13802;DHT22;6972;51.518;6.918;2023-05-20T12:22:56;20.90;99.90
13802;DHT22;6972;51.518;6.918;2023-05-20T12:25:22;20.80;99.90
13802;DHT22;6972;51.518;6.918;2023-05-20T12:27:49;20.90;99.90
13802;DHT22;6972;51.518;6.918;2023-05-20T12:30:20;20.80;99.90
13802;DHT22;6972;51.518;6.918;2023-05-20T12:32:46;20.90;99.90
13802;DHT22;6972;51.518;6.918;2023-05-20T12:35:12;20.90;99.90
13802;DHT22;6972;51.518;6.918;2023-05-20T12:37:39;20.90;99.90
13802;DHT22;6972;51.518;6.918;2023-05-20T12:40:06;20.90;99.90
13802;DHT22;6972;51.518;6.918;2023-05-20T12:42:37;20.90;99.90
13802;DHT22;6972;51.518;6.918;2023-05-20T12:45:03;20.90;99.90
13802;DHT22;6972;51.518;6.918;2023-05-20T12:47:32;20.90;99.90
13802;DHT22;6972;51.518;6.918;2023-05-20T12:49:58;20.90;99.90
13802;DHT22;6972;51.518;6.918;2023-05-20T12:52:25;20.90;99.90
13802;DHT22;6972;51.518;6.918;2023-05-20T12:54:52;21.00;99.90
13802;DHT22;6972;51.518;6.918;2023-05-20T12:57:17;20.90;99.90
13802;DHT22;6972;51.518;6.918;2023-05-20T12:59:44;21.00;99.90
13802;DHT22;6972;51.518;6.918;2023-05-20T13:02:10;20.90;99.90
13802;DHT22;6972;51.518;6.918;2023-05-20T13:04:35;21.00;99.90
13802;DHT22;6972;51.518;6.918;2023-05-20T13:07:02;21.00;99.90
13802;DHT22;6972;51.518;6.918;2023-05-20T13:09:27;21.00;99.90
13802;DHT22;6972;51.518;6.918;2023-05-20T13:11:53;21.00;99.90
13802;DHT22;6972;51.518;6.918;2023-05-20T13:14:19;21.00;99.90
13802;DHT22;6972;51.518;6.918;2023-05-20T13:16:46;21.00;99.90
13802;DHT22;6972;51.518;6.918;2023-05-20T13:19:12;20.90;99.90
13802;DHT22;6972;51.518;6.918;2023-05-20T13:21:38;20.90;99.90
13802;DHT22;6972;51.518;6.918;2023-05-20T13:24:03;20.90;99.90
13802;DHT22;6972;51.518;6.918;2023-05-20T13:26:29;20.90;99.90
13802;DHT22;6972;51.518;6.918;2023-05-20T13:28:55;20.90;99.90
13802;DHT22;6972;51.518;6.918;2023-05-20T13:31:21;20.90;99.90
13802;DHT22;6972;51.518;6.918;2023-05-20T13:33:47;20.90;99.90
13802;DHT22;6972;51.518;6.918;2023-05-20T13:36:12;20.90;99.90
13802;DHT22;6972;51.518;6.918;2023-05-20T13:38:38;20.80;99.90
13802;DHT22;6972;51.518;6.918;2023-05-20T13:41:04;20.80;99.90
13802;DHT22;6972;51.518;6.918;2023-05-20T13:43:30;20.80;99.90
13802;DHT22;6972;51.518;6.918;2023-05-20T13:45:56;20.80;99.90
13802;DHT22;6972;51.518;6.918;2023-05-20T13:48:22;20.90;99.90
13802;DHT22;6972;51.518;6.918;2023-05-20T13:50:47;20.80;99.90
13802;DHT22;6972;51.518;6.918;2023-05-20T13:53:13;20.80;99.90
13802;DHT22;6972;51.518;6.918;2023-05-20T13:55:39;20.80;99.90
13802;DHT22;6972;51.518;6.918;2023-05-20T13:58:06;20.80;99.90
13802;DHT22;6972;51.518;6.918;2023-05-20T14:00:37;20.80;99.90
13802;DHT22;6972;51.518;6.918;2023-05-20T14:03:03;20.80;99.90
13802;DHT22;6972;51.518;6.918;2023-05-20T14:05:32;20.80;99.90
13802;DHT22;6972;51.518;6.918;2023-05-20T14:07:59;20.80;99.90
13802;DHT22;6972;51.518;6.918;2023-05-20T14:10:24;20.80;99.90
13802;DHT22;6972;51.518;6.918;2023-05-20T14:12:51;20.80;99.90
13802;DHT22;6972;51.518;6.918;2023-05-20T14:15:17;20.80;99.90
13802;DHT22;6972;51.518;6.918;2023-05-20T14:17:43;20.80;99.90
13802;DHT22;6972;51.518;6.918;2023-05-20T14:20:09;20.80;99.90
13802;DHT22;6972;51.518;6.918;2023-05-20T14:22:35;20.80;99.90
13802;DHT22;6972;51.518;6.918;2023-05-20T14:25:00;20.80;99.90
13802;DHT22;6972;51.518;6.918;2023-05-20T14:27:29;20.80;99.90
13802;DHT22;6972;51.518;6.918;2023-05-20T14:29:55;20.80;99.90
13802;DHT22;6972;51.518;6.918;2023-05-20T14:32:20;20.80;99.90
13802;DHT22;6972;51.518;6.918;2023-05-20T14:34:46;20.80;99.90
13802;DHT22;6972;51.518;6.918;2023-05-20T14:37:11;22.80;99.90
13802;DHT22;6972;51.518;6.918;2023-05-20T14:39:38;20.80;99.90
13802;DHT22;6972;51.518;6.918;2023-05-20T14:42:04;20.80;99.90
13802;DHT22;6972;51.518;6.918;2023-05-20T14:44:30;20.90;99.90
13802;DHT22;6972;51.518;6.918;2023-05-20T14:46:55;20.80;99.90
13802;DHT22;6972;51.518;6.918;2023-05-20T14:49:21;20.80;99.90
13802;DHT22;6972;51.518;6.918;2023-05-20T14:51:47;20.90;99.90
13802;DHT22;6972;51.518;6.918;2023-05-20T14:54:13;20.80;99.90
13802;DHT22;6972;51.518;6.918;2023-05-20T14:56:40;20.80;99.90
13802;DHT22;6972;51.518;6.918;2023-05-20T14:59:06;20.80;99.90
13802;DHT22;6972;51.518;6.918;2023-05-20T15:01:35;20.80;99.90
13802;DHT22;6972;51.518;6.918;2023-05-20T15:06:26;20.80;99.90
13802;DHT22;6972;51.518;6.918;2023-05-20T15:08:52;20.80;99.90
13802;DHT22;6972;51.518;6.918;2023-05-20T15:13:44;20.80;99.90
13802;DHT22;6972;51.518;6.918;2023-05-20T15:16:11;20.90;99.90
13802;DHT22;6972;51.518;6.918;2023-05-20T15:18:37;20.90;99.90
13802;DHT22;6972;51.518;6.918;2023-05-20T15:21:03;20.90;99.90
13802;DHT22;6972;51.518;6.918;2023-05-20T15:23:29;20.90;99.90
13802;DHT22;6972;51.518;6.918;2023-05-20T15:25:54;20.90;99.90
13802;DHT22;6972;51.518;6.918;2023-05-20T15:28:22;20.90;99.90
13802;DHT22;6972;51.518;6.918;2023-05-20T15:30:53;20.90;99.90
13802;DHT22;6972;51.518;6.918;2023-05-20T15:33:19;20.90;99.90
13802;DHT22;6972;51.518;6.918;2023-05-20T15:35:45;21.00;99.90
13802;DHT22;6972;51.518;6.918;2023-05-20T15:38:12;21.00;99.90
13802;DHT22;6972;51.518;6.918;2023-05-20T15:40:37;21.00;99.90
13802;DHT22;6972;51.518;6.918;2023-05-20T15:43:04;21.00;99.90
13802;DHT22;6972;51.518;6.918;2023-05-20T15:45:31;21.00;99.90
13802;DHT22;6972;51.518;6.918;2023-05-20T15:47:57;21.00;99.90
13802;DHT22;6972;51.518;6.918;2023-05-20T15:50:22;21.00;99.90
13802;DHT22;6972;51.518;6.918;2023-05-20T15:52:50;21.00;99.90